createdAt,value
2023-05-07T00:01:13.320Z,699.80
2023-05-07T00:03:40.182Z,722.17
2023-05-07T00:06:07.091Z,693.55
2023-05-07T00:08:33.992Z,718.55
2023-05-07T00:11:00.375Z,727.97
2023-05-07T00:13:26.888Z,704.80
2023-05-07T00:15:53.382Z,702.97
2023-05-07T00:18:22.066Z,709.03
2023-05-07T00:20:48.431Z,700.03
2023-05-07T00:23:14.778Z,736.85
2023-05-07T00:25:41.148Z,722.00
2023-05-07T00:28:07.559Z,736.45
2023-05-07T00:30:33.899Z,725.15
2023-05-07T00:33:00.340Z,747.45
2023-05-07T00:35:27.004Z,744.83
2023-05-07T00:37:53.369Z,749.08
2023-05-07T00:40:19.806Z,739.58
2023-05-07T00:42:48.135Z,740.60
2023-05-07T00:45:15.074Z,745.63
2023-05-07T00:47:42.378Z,660.35
2023-05-07T00:50:10.984Z,652.45
2023-05-07T00:52:38.297Z,670.17
2023-05-07T00:55:07.126Z,685.55
2023-05-07T00:57:37.721Z,698.40
2023-05-07T01:00:05.902Z,665.80
2023-05-07T01:02:32.379Z,624.88
2023-05-07T01:04:58.995Z,700.17
2023-05-07T01:07:26.038Z,729.88
2023-05-07T01:09:52.722Z,713.45
2023-05-07T01:12:19.420Z,701.95
2023-05-07T01:14:46.006Z,710.70
2023-05-07T01:17:12.493Z,752.08
2023-05-07T01:19:38.871Z,732.25
2023-05-07T01:22:10.298Z,739.35
2023-05-07T01:24:38.130Z,727.70
2023-05-07T01:27:05.315Z,729.38
2023-05-07T01:29:31.751Z,733.22
2023-05-07T01:32:00.616Z,745.83
2023-05-07T01:34:31.189Z,748.75
2023-05-07T01:36:58.984Z,666.28
2023-05-07T01:39:26.873Z,726.15
2023-05-07T01:41:57.406Z,721.42
2023-05-07T01:44:25.224Z,729.92
2023-05-07T01:46:51.914Z,729.50
2023-05-07T01:49:18.990Z,751.45
2023-05-07T01:51:45.545Z,736.58
2023-05-07T01:54:12.391Z,747.08
2023-05-07T01:56:38.909Z,737.63
2023-05-07T01:59:06.051Z,733.67
2023-05-07T02:01:32.685Z,705.58
2023-05-07T02:03:59.144Z,684.45
2023-05-07T02:06:25.796Z,685.17
2023-05-07T02:08:52.306Z,676.95
2023-05-07T02:11:18.708Z,634.10
2023-05-07T02:13:45.147Z,624.78
2023-05-07T02:16:11.837Z,630.90
2023-05-07T02:18:38.593Z,603.92
2023-05-07T02:21:04.999Z,609.50
2023-05-07T02:23:31.416Z,615.55
2023-05-07T02:25:57.873Z,635.22
2023-05-07T02:28:24.684Z,640.45
2023-05-07T02:30:51.560Z,621.13
2023-05-07T02:33:17.987Z,639.13
2023-05-07T02:35:44.349Z,610.42
2023-05-07T02:38:11.752Z,622.80
2023-05-07T02:40:41.025Z,633.58
2023-05-07T02:43:07.504Z,620.95
2023-05-07T02:45:34.440Z,644.50
2023-05-07T02:48:00.937Z,577.00
2023-05-07T02:50:28.037Z,547.50
2023-05-07T02:52:54.795Z,589.72
2023-05-07T02:55:21.303Z,620.15
2023-05-07T02:57:47.741Z,665.13
2023-05-07T03:00:18.909Z,659.83
2023-05-07T03:02:46.194Z,661.95
2023-05-07T03:05:13.565Z,654.78
2023-05-07T03:07:40.028Z,670.72
2023-05-07T03:10:07.233Z,663.17
2023-05-07T03:12:33.745Z,681.20
2023-05-07T03:15:00.286Z,676.42
2023-05-07T03:17:26.748Z,675.20
2023-05-07T03:19:53.146Z,656.15
2023-05-07T03:22:19.636Z,663.95
2023-05-07T03:24:46.086Z,671.95
2023-05-07T03:27:12.507Z,667.60
2023-05-07T03:29:38.877Z,634.80
2023-05-07T03:32:05.487Z,672.22
2023-05-07T03:34:31.999Z,644.50
2023-05-07T03:36:58.337Z,665.33
2023-05-07T03:39:24.718Z,632.40
2023-05-07T03:41:51.203Z,666.63
2023-05-07T03:44:17.538Z,654.97
2023-05-07T03:46:44.055Z,654.45
2023-05-07T03:49:11.733Z,641.75
2023-05-07T03:51:38.118Z,628.15
2023-05-07T03:54:04.767Z,643.72
2023-05-07T03:56:32.068Z,661.65
2023-05-07T03:58:58.470Z,638.53
2023-05-07T04:01:25.230Z,621.95
2023-05-07T04:03:51.785Z,631.97
2023-05-07T04:06:18.516Z,629.10
2023-05-07T04:08:44.991Z,628.03
2023-05-07T04:11:11.385Z,646.40
2023-05-07T04:13:40.497Z,646.70
2023-05-07T04:16:07.340Z,624.55
2023-05-07T04:18:33.753Z,645.72
2023-05-07T04:21:00.182Z,634.88
2023-05-07T04:23:26.635Z,642.15
2023-05-07T04:25:52.985Z,608.70
2023-05-07T04:28:19.341Z,626.30
2023-05-07T04:30:45.773Z,684.22
2023-05-07T04:33:12.667Z,716.13
2023-05-07T04:35:39.135Z,694.72
2023-05-07T04:38:05.479Z,660.38
2023-05-07T04:40:31.982Z,674.25
2023-05-07T04:42:58.367Z,736.45
2023-05-07T04:45:24.759Z,689.08
2023-05-07T04:47:51.196Z,639.13
2023-05-07T04:50:18.652Z,628.28
2023-05-07T04:52:45.083Z,624.55
2023-05-07T04:55:11.727Z,687.17
2023-05-07T04:57:40.609Z,659.90
2023-05-07T05:00:09.606Z,692.20
2023-05-07T05:02:36.231Z,710.88
2023-05-07T05:05:03.294Z,752.55
2023-05-07T05:07:29.660Z,715.95
2023-05-07T05:09:56.519Z,686.10
2023-05-07T05:12:23.146Z,684.92
2023-05-07T05:14:49.591Z,694.03
2023-05-07T05:17:15.983Z,703.53
2023-05-07T05:19:42.393Z,712.33
2023-05-07T05:22:08.782Z,714.75
2023-05-07T05:24:35.098Z,714.60
2023-05-07T05:27:02.296Z,673.25
2023-05-07T05:29:28.698Z,483.35
2023-05-07T05:31:55.121Z,428.15
2023-05-07T05:34:22.719Z,449.52
2023-05-07T05:36:49.335Z,485.35
2023-05-07T05:39:15.801Z,509.27
2023-05-07T05:41:42.261Z,511.65
2023-05-07T05:44:08.717Z,571.33
2023-05-07T05:46:37.172Z,550.42
2023-05-07T05:49:03.732Z,489.13
2023-05-07T05:51:30.109Z,420.40
2023-05-07T05:53:56.473Z,413.30
2023-05-07T05:56:22.924Z,446.30
2023-05-07T05:58:49.380Z,468.90
2023-05-07T06:01:15.981Z,471.77
2023-05-07T06:03:42.336Z,442.00
2023-05-07T06:06:08.738Z,494.98
2023-05-07T06:08:35.218Z,429.90
2023-05-07T06:11:03.344Z,487.95
2023-05-07T06:13:29.829Z,421.30
2023-05-07T06:15:56.447Z,464.50
2023-05-07T06:18:23.137Z,548.05
2023-05-07T06:20:49.802Z,497.08
2023-05-07T06:23:17.947Z,527.08
2023-05-07T06:25:50.363Z,507.73
2023-05-07T06:28:17.320Z,440.23
2023-05-07T06:30:43.856Z,499.33
2023-05-07T06:33:10.617Z,386.13
2023-05-07T06:35:36.988Z,345.15
2023-05-07T06:38:03.346Z,428.48
2023-05-07T06:40:29.768Z,419.73
2023-05-07T06:42:56.099Z,414.65
2023-05-07T06:45:22.536Z,434.85
2023-05-07T06:47:48.950Z,451.15
2023-05-07T06:50:17.553Z,417.27
2023-05-07T06:52:44.179Z,494.88
2023-05-07T06:55:10.557Z,478.10
2023-05-07T06:57:37.213Z,519.22
2023-05-07T07:00:05.220Z,451.35
2023-05-07T07:02:31.616Z,468.63
2023-05-07T07:04:58.072Z,466.90
2023-05-07T07:07:24.454Z,492.33
2023-05-07T07:09:50.942Z,480.33
2023-05-07T07:12:18.532Z,518.60
2023-05-07T07:14:44.884Z,546.53
2023-05-07T07:17:11.463Z,487.77
2023-05-07T07:19:38.598Z,411.63
2023-05-07T07:22:04.985Z,377.73
2023-05-07T07:24:31.361Z,386.67
2023-05-07T07:26:57.791Z,412.45
2023-05-07T07:29:24.526Z,385.35
2023-05-07T07:31:51.060Z,399.98
2023-05-07T07:34:17.462Z,509.58
2023-05-07T07:36:46.739Z,475.65
2023-05-07T07:39:13.874Z,421.02
2023-05-07T07:41:40.364Z,459.48
2023-05-07T07:44:08.482Z,432.75
2023-05-07T07:46:35.562Z,437.25
2023-05-07T07:49:01.941Z,348.63
2023-05-07T07:51:28.383Z,330.80
2023-05-07T07:53:54.817Z,378.60
2023-05-07T07:56:21.665Z,309.65
2023-05-07T07:58:48.053Z,266.90
2023-05-07T08:01:14.507Z,269.65
2023-05-07T08:03:41.015Z,364.45
2023-05-07T08:06:08.578Z,283.63
2023-05-07T08:08:38.115Z,284.42
2023-05-07T08:11:04.568Z,325.13
2023-05-07T08:13:31.049Z,321.60
2023-05-07T08:16:01.017Z,200.88
2023-05-07T08:18:29.351Z,170.93
2023-05-07T08:20:58.593Z,237.48
2023-05-07T08:23:28.252Z,222.75
2023-05-07T08:25:54.726Z,208.45
2023-05-07T08:29:08.828Z,279.27
2023-05-07T08:31:11.547Z,147.55
2023-05-07T08:33:39.435Z,89.13
2023-05-07T08:36:27.172Z,96.30
2023-05-07T08:38:55.890Z,176.20
2023-05-07T08:41:22.498Z,84.32
2023-05-07T08:43:53.310Z,142.23
2023-05-07T08:46:21.846Z,33.63
2023-05-07T08:48:55.929Z,98.35
2023-05-07T08:51:22.809Z,55.45
2023-05-07T08:53:51.880Z,27.95
2023-05-07T08:56:20.442Z,88.28
2023-05-07T08:58:49.016Z,45.38
2023-05-07T09:01:16.876Z,19.00
2023-05-07T09:03:48.355Z,64.25
2023-05-07T09:06:15.144Z,152.93
2023-05-07T09:08:41.634Z,158.15
2023-05-07T09:11:08.131Z,148.95
2023-05-07T09:13:37.005Z,22.60
2023-05-07T09:16:12.632Z,91.15
2023-05-07T09:18:45.837Z,26.45
2023-05-07T09:21:15.805Z,41.20
2023-05-07T09:23:43.066Z,25.55
2023-05-07T09:26:15.642Z,240.65
2023-05-07T09:28:42.913Z,154.50
2023-05-07T09:31:10.672Z,59.60
2023-05-07T09:33:37.442Z,53.72
2023-05-07T09:36:05.937Z,56.65
2023-05-07T09:38:36.178Z,144.55
2023-05-07T09:41:12.518Z,59.60
2023-05-07T09:43:40.029Z,28.77
2023-05-07T09:46:13.324Z,27.60
2023-05-07T09:48:41.375Z,27.13
2023-05-07T09:51:19.246Z,64.20
2023-05-07T09:53:47.155Z,114.85
2023-05-07T09:56:15.817Z,51.20
2023-05-07T09:58:42.922Z,26.98
2023-05-07T10:01:11.707Z,28.25
2023-05-07T10:03:41.371Z,23.15
2023-05-07T10:06:10.310Z,95.43
2023-05-07T10:08:37.352Z,24.08
2023-05-07T10:11:06.008Z,30.17
2023-05-07T10:13:36.876Z,34.10
2023-05-07T10:16:06.614Z,47.17
2023-05-07T10:18:34.036Z,22.95
2023-05-07T10:21:18.727Z,47.42
2023-05-07T10:24:18.933Z,19.02
2023-05-07T10:26:49.400Z,15.75
2023-05-07T10:30:04.030Z,39.50
2023-05-07T10:32:41.785Z,22.05
2023-05-07T10:35:15.041Z,44.15
2023-05-07T10:37:42.265Z,27.08
2023-05-07T10:40:10.721Z,82.70
2023-05-07T10:42:37.170Z,104.10
2023-05-07T10:45:15.041Z,76.68
2023-05-07T10:48:29.654Z,88.70
2023-05-07T10:51:20.462Z,34.72
2023-05-07T10:53:46.853Z,27.63
2023-05-07T10:56:22.255Z,19.50
2023-05-07T10:58:48.601Z,23.60
2023-05-07T11:01:15.697Z,38.97
2023-05-07T11:04:14.022Z,30.85
2023-05-07T11:06:41.097Z,23.23
2023-05-07T11:09:08.660Z,14.88
2023-05-07T11:11:56.969Z,16.67
2023-05-07T11:14:45.488Z,11.32
2023-05-07T11:17:12.600Z,12.95
2023-05-07T11:19:52.882Z,12.23
2023-05-07T11:22:38.069Z,14.93
2023-05-07T11:25:04.865Z,12.65
2023-05-07T11:27:31.210Z,15.25
2023-05-07T11:29:57.564Z,12.57
2023-05-07T11:32:25.095Z,12.75
2023-05-07T11:34:56.013Z,15.98
2023-05-07T11:37:24.007Z,12.43
2023-05-07T11:39:55.424Z,15.90
2023-05-07T11:42:31.827Z,14.52
2023-05-07T11:44:58.770Z,14.00
2023-05-07T11:47:26.200Z,13.20
2023-05-07T11:49:54.556Z,13.35
2023-05-07T11:52:22.657Z,12.80
2023-05-07T11:54:53.803Z,14.13
2023-05-07T11:57:20.847Z,12.68
2023-05-07T11:59:50.244Z,16.27
2023-05-07T12:02:19.144Z,14.10
2023-05-07T12:04:45.717Z,13.80
2023-05-07T12:07:14.494Z,16.55
2023-05-07T12:09:42.259Z,10.48
2023-05-07T12:12:19.334Z,10.68
2023-05-07T12:14:46.819Z,10.50
2023-05-07T12:17:15.309Z,13.32
2023-05-07T12:19:45.497Z,19.60
2023-05-07T12:22:12.793Z,18.23
2023-05-07T12:24:58.471Z,14.07
2023-05-07T12:27:26.733Z,12.60
2023-05-07T12:29:53.218Z,17.13
2023-05-07T12:32:21.954Z,12.60
2023-05-07T12:34:51.765Z,13.32
2023-05-07T12:37:23.600Z,12.13
2023-05-07T12:40:03.952Z,14.88
2023-05-07T12:42:36.065Z,16.73
2023-05-07T12:45:17.328Z,10.48
2023-05-07T12:47:48.332Z,6.90
2023-05-07T12:50:16.586Z,7.30
2023-05-07T12:52:45.296Z,6.78
2023-05-07T12:55:15.771Z,6.80
2023-05-07T12:57:49.363Z,9.20
2023-05-07T13:00:16.240Z,6.40
2023-05-07T13:02:47.151Z,6.78
2023-05-07T13:05:14.150Z,7.18
2023-05-07T13:07:41.648Z,12.80
2023-05-07T13:10:08.693Z,13.68
2023-05-07T13:12:35.943Z,19.23
2023-05-07T13:15:02.324Z,14.20
2023-05-07T13:17:28.792Z,16.20
2023-05-07T13:19:55.174Z,18.02
2023-05-07T13:22:21.530Z,17.05
2023-05-07T13:24:48.060Z,20.23
2023-05-07T13:27:14.380Z,22.60
2023-05-07T13:29:40.754Z,20.17
2023-05-07T13:32:07.257Z,19.45
2023-05-07T13:34:33.697Z,17.80
2023-05-07T13:37:00.171Z,17.30
2023-05-07T13:39:26.785Z,18.60
2023-05-07T13:41:53.224Z,18.30
2023-05-07T13:44:19.911Z,86.15
2023-05-07T13:46:46.467Z,443.73
2023-05-07T13:49:13.811Z,601.08
2023-05-07T13:51:41.357Z,533.80
2023-05-07T13:54:07.710Z,571.33
2023-05-07T13:56:34.363Z,645.60
2023-05-07T13:59:01.158Z,629.22
2023-05-07T14:01:28.455Z,750.33
2023-05-07T14:03:55.073Z,873.90
2023-05-07T14:06:21.448Z,828.05
2023-05-07T14:08:47.843Z,895.47
2023-05-07T14:11:14.360Z,943.50
2023-05-07T14:13:41.050Z,932.53
2023-05-07T14:16:07.477Z,996.33
2023-05-07T14:18:35.366Z,1027.07
2023-05-07T14:21:01.775Z,1044.20
2023-05-07T14:23:28.715Z,1072.10
2023-05-07T14:25:55.536Z,1138.28
2023-05-07T14:28:23.462Z,1187.55
2023-05-07T14:30:50.055Z,1121.95
2023-05-07T14:33:16.727Z,1139.47
2023-05-07T14:35:48.459Z,1153.40
2023-05-07T14:38:15.599Z,1178.80
2023-05-07T14:40:45.871Z,1191.28
2023-05-07T14:43:12.463Z,1357.10
2023-05-07T14:45:39.563Z,1347.93
2023-05-07T14:48:06.671Z,1361.50
2023-05-07T14:50:35.401Z,1340.50
2023-05-07T14:53:02.013Z,1381.78
2023-05-07T14:55:29.071Z,1372.13
2023-05-07T14:57:56.812Z,1370.55
2023-05-07T15:00:23.551Z,1425.78
2023-05-07T15:02:50.367Z,1416.72
2023-05-07T15:05:19.593Z,1407.30
2023-05-07T15:07:47.294Z,1388.68
2023-05-07T15:10:16.234Z,1506.20
2023-05-07T15:12:42.738Z,1157.63
2023-05-07T15:15:10.141Z,1384.68
2023-05-07T15:17:38.670Z,1370.68
2023-05-07T15:20:06.024Z,1359.18
2023-05-07T15:22:40.040Z,1448.97
2023-05-07T15:25:06.752Z,1375.38
2023-05-07T15:27:39.917Z,1489.10
2023-05-07T15:30:07.021Z,1411.43
2023-05-07T15:32:35.696Z,1438.45
2023-05-07T15:35:06.464Z,1247.40
2023-05-07T15:37:36.187Z,1365.88
2023-05-07T15:40:03.553Z,1348.13
2023-05-07T15:42:30.137Z,1387.28
2023-05-07T15:45:08.589Z,1488.68
2023-05-07T15:47:37.899Z,1478.72
2023-05-07T15:50:05.170Z,1214.57
2023-05-07T15:52:52.052Z,1334.22
2023-05-07T15:55:18.738Z,1263.97
2023-05-07T15:57:52.344Z,1281.35
2023-05-07T16:00:22.981Z,1283.22
2023-05-07T16:02:52.033Z,1135.05
2023-05-07T16:05:25.059Z,1184.57
2023-05-07T16:07:52.756Z,1193.18
2023-05-07T16:10:21.732Z,1167.22
2023-05-07T16:12:48.316Z,1103.20
2023-05-07T16:15:15.913Z,1097.72
2023-05-07T16:17:42.766Z,1143.63
2023-05-07T16:20:16.773Z,1138.47
2023-05-07T16:22:53.734Z,1101.32
2023-05-07T16:25:22.704Z,1096.50
2023-05-07T16:27:49.279Z,1114.55
2023-05-07T16:30:21.149Z,1106.07
2023-05-07T16:32:50.266Z,1107.45
2023-05-07T16:35:17.010Z,1105.25
2023-05-07T16:37:43.591Z,1045.05
2023-05-07T16:40:10.662Z,1036.05
2023-05-07T16:42:37.361Z,1057.80
2023-05-07T16:45:07.075Z,1071.75
2023-05-07T16:47:33.503Z,1018.88
2023-05-07T16:50:00.872Z,1036.03
2023-05-07T16:52:29.726Z,1018.80
2023-05-07T16:54:58.394Z,1013.42
2023-05-07T16:57:25.428Z,1006.95
2023-05-07T16:59:55.384Z,1030.00
2023-05-07T17:02:22.047Z,1001.40
2023-05-07T17:04:48.553Z,1044.75
2023-05-07T17:07:18.206Z,1019.58
2023-05-07T17:09:44.872Z,1075.70
2023-05-07T17:12:11.266Z,1095.28
2023-05-07T17:14:37.647Z,1084.68
2023-05-07T17:17:04.113Z,1091.88
2023-05-07T17:19:30.537Z,1074.13
2023-05-07T17:21:57.493Z,1083.32
2023-05-07T17:24:23.867Z,1114.40
2023-05-07T17:26:50.339Z,1092.75
2023-05-07T17:29:19.057Z,1077.50
2023-05-07T17:31:46.421Z,1069.35
2023-05-07T17:34:25.531Z,1055.03
2023-05-07T17:36:58.984Z,1055.95
2023-05-07T17:39:25.411Z,1081.83
2023-05-07T17:41:51.866Z,1060.32
2023-05-07T17:44:18.769Z,1070.13
2023-05-07T17:46:47.964Z,1097.32
2023-05-07T17:49:16.201Z,1081.10
2023-05-07T17:51:53.288Z,1075.15
2023-05-07T17:54:32.651Z,1042.47
2023-05-07T17:57:01.294Z,1054.53
2023-05-07T17:59:29.624Z,1103.85
2023-05-07T18:01:56.091Z,1062.47
2023-05-07T18:04:24.479Z,1072.50
2023-05-07T18:06:50.991Z,1085.40
2023-05-07T18:09:17.393Z,1158.18
2023-05-07T18:11:43.813Z,1111.88
2023-05-07T18:14:10.414Z,1084.38
2023-05-07T18:16:36.911Z,1066.60
2023-05-07T18:19:03.311Z,1070.32
2023-05-07T18:21:29.816Z,1093.03
2023-05-07T18:23:56.187Z,1072.93
2023-05-07T18:26:22.574Z,1065.35
2023-05-07T18:28:48.960Z,1126.03
2023-05-07T18:31:15.572Z,1119.53
2023-05-07T18:33:42.024Z,1072.60
2023-05-07T18:36:08.404Z,1090.32
2023-05-07T18:38:34.814Z,1095.78
2023-05-07T18:41:05.297Z,1085.35
2023-05-07T18:43:32.185Z,1046.47
2023-05-07T18:45:58.653Z,1043.95
2023-05-07T18:48:25.337Z,1057.43
2023-05-07T18:50:51.760Z,1037.95
2023-05-07T18:53:18.210Z,1069.32
2023-05-07T18:55:49.435Z,1055.57
2023-05-07T18:58:16.914Z,1070.95
2023-05-07T19:00:43.277Z,1045.47
2023-05-07T19:03:09.813Z,1072.38
2023-05-07T19:05:36.255Z,1080.13
2023-05-07T19:08:02.822Z,1080.68
2023-05-07T19:10:29.187Z,1094.90
2023-05-07T19:12:57.389Z,1075.45
2023-05-07T19:15:23.802Z,1065.72
2023-05-07T19:17:51.001Z,1055.38
2023-05-07T19:20:17.802Z,1063.97
2023-05-07T19:22:44.479Z,1069.20
2023-05-07T19:25:13.295Z,1080.95
2023-05-07T19:27:40.379Z,1068.18
2023-05-07T19:30:09.121Z,1079.18
2023-05-07T19:32:35.880Z,1052.88
2023-05-07T19:35:02.681Z,1051.70
2023-05-07T19:37:30.135Z,1051.93
2023-05-07T19:39:56.778Z,1078.38
2023-05-07T19:42:23.224Z,1087.72
2023-05-07T19:44:49.609Z,1088.30
2023-05-07T19:47:16.564Z,1055.40
2023-05-07T19:49:42.910Z,1057.97
2023-05-07T19:52:09.228Z,1044.22
2023-05-07T19:54:35.834Z,1033.40
2023-05-07T19:57:02.317Z,1035.43
2023-05-07T19:59:28.805Z,1019.08
2023-05-07T20:01:55.267Z,1032.80
2023-05-07T20:04:21.692Z,1026.28
2023-05-07T20:06:48.173Z,1042.72
2023-05-07T20:09:14.679Z,1052.28
2023-05-07T20:11:41.132Z,1059.20
2023-05-07T20:14:09.466Z,1033.13
2023-05-07T20:16:36.027Z,1061.68
2023-05-07T20:19:02.640Z,1019.83
2023-05-07T20:21:29.082Z,1025.20
2023-05-07T20:23:55.704Z,1062.93
2023-05-07T20:26:22.270Z,1063.28
2023-05-07T20:28:48.596Z,1049.65
2023-05-07T20:31:16.288Z,1053.35
2023-05-07T20:33:42.708Z,1031.20
2023-05-07T20:36:09.128Z,1016.65
2023-05-07T20:38:35.646Z,1037.25
2023-05-07T20:41:09.752Z,1046.55
2023-05-07T20:43:37.540Z,1019.05
2023-05-07T20:46:05.426Z,1025.95
2023-05-07T20:48:31.912Z,993.15
2023-05-07T20:50:59.650Z,1018.95
2023-05-07T20:53:29.593Z,1020.10
2023-05-07T20:55:58.963Z,1008.63
2023-05-07T20:58:27.774Z,1016.72
2023-05-07T21:00:55.488Z,1027.63
2023-05-07T21:03:25.263Z,1017.28
2023-05-07T21:05:52.723Z,1012.25
2023-05-07T21:08:19.753Z,1021.58
2023-05-07T21:10:48.367Z,1005.65
2023-05-07T21:13:15.142Z,979.08
2023-05-07T21:15:42.746Z,998.22
2023-05-07T21:18:12.541Z,1016.90
2023-05-07T21:20:39.065Z,1016.90
2023-05-07T21:23:06.060Z,1026.85
2023-05-07T21:25:32.456Z,1025.47
2023-05-07T21:27:59.225Z,1033.72
2023-05-07T21:30:25.756Z,1027.28
2023-05-07T21:32:54.254Z,998.63
2023-05-07T21:35:20.752Z,1018.38
2023-05-07T21:37:47.228Z,1006.65
2023-05-07T21:40:14.046Z,1007.65
2023-05-07T21:42:40.733Z,1015.45
2023-05-07T21:45:07.426Z,992.50
2023-05-07T21:47:33.855Z,1009.95
2023-05-07T21:50:01.048Z,1012.17
2023-05-07T21:52:27.758Z,1006.03
2023-05-07T21:54:54.372Z,978.58
2023-05-07T21:57:21.076Z,1016.92
2023-05-07T21:59:47.459Z,1033.50
2023-05-07T22:02:13.953Z,1038.90
2023-05-07T22:04:40.443Z,1037.38
2023-05-07T22:07:06.979Z,1056.72
2023-05-07T22:09:35.661Z,1046.60
2023-05-07T22:12:03.291Z,1027.70
2023-05-07T22:14:29.689Z,1052.38
2023-05-07T22:16:56.307Z,994.25
2023-05-07T22:19:22.739Z,981.88
2023-05-07T22:21:49.235Z,989.75
2023-05-07T22:24:15.584Z,999.45
2023-05-07T22:26:42.051Z,990.67
2023-05-07T22:29:08.468Z,977.58
2023-05-07T22:31:34.887Z,973.42
2023-05-07T22:34:01.544Z,969.45
2023-05-07T22:36:28.060Z,977.10
2023-05-07T22:38:55.170Z,974.72
2023-05-07T22:41:21.567Z,992.80
2023-05-07T22:43:47.970Z,967.53
2023-05-07T22:46:14.478Z,990.13
2023-05-07T22:48:40.985Z,983.08
2023-05-07T22:51:13.896Z,975.97
2023-05-07T22:53:43.143Z,994.25
2023-05-07T22:56:09.766Z,1000.65
2023-05-07T22:58:36.246Z,1016.50
2023-05-07T23:01:02.728Z,1024.22
2023-05-07T23:03:30.191Z,1023.17
2023-05-07T23:05:56.600Z,1022.45
2023-05-07T23:08:23.208Z,1060.85
2023-05-07T23:10:52.450Z,1028.40
2023-05-07T23:13:19.048Z,1029.68
2023-05-07T23:15:45.504Z,1026.13
2023-05-07T23:18:12.070Z,1034.82
2023-05-07T23:20:41.250Z,1030.32
2023-05-07T23:23:07.654Z,1013.65
2023-05-07T23:25:34.039Z,1035.00
2023-05-07T23:28:00.574Z,1047.68
2023-05-07T23:30:26.964Z,1060.35
2023-05-07T23:32:53.643Z,1028.72
2023-05-07T23:35:20.265Z,1013.92
2023-05-07T23:37:46.659Z,1034.05
2023-05-07T23:40:13.410Z,1025.45
2023-05-07T23:42:40.049Z,1018.58
2023-05-07T23:45:06.777Z,1027.70
2023-05-07T23:47:33.560Z,1013.83
2023-05-07T23:49:59.963Z,1040.55
2023-05-07T23:52:26.351Z,1029.32
2023-05-07T23:54:52.843Z,1027.97
2023-05-07T23:57:20.196Z,1015.10
2023-05-07T23:59:46.609Z,1013.65
